Time;durP1;ratioP1;P1;durP2;ratioP2;P2;SDS_P1;SDS_P2;PMS_P1;PMS_P2;Temp;Humidity;BMP_temperature;BMP_pressure;BME280_temperature;BME280_humidity;BME280_pressure;Samples;Min_cycle;Max_cycle;Signal;HPM_P1;HPM_P2
2021/05/06 00:36:00;;;;;;;1.73;1.63;;;;;5.70;100363.00;;;;10503871;28;20208;-75
2021/05/06 01:02:51;;;;;;;5.13;2.07;;;;;5.30;100358.00;;;;10452496;28;20189;-76
2021/05/06 01:13:05;;;;;;;2.10;1.60;;;;;5.20;100360.00;;;;10468059;28;20197;-76
2021/05/06 01:18:07;;;;;;;3.83;1.60;;;;;5.10;100354.00;;;;10484633;28;20216;-76
2021/05/06 01:23:09;;;;;;;2.87;1.40;;;;;5.00;100360.00;;;;10451006;28;20276;-75
2021/05/06 01:28:13;;;;;;;1.77;1.60;;;;;4.80;100349.00;;;;10483114;28;20190;-75
2021/05/06 01:43:56;;;;;;;2.43;1.90;;;;;4.60;100357.00;;;;10466581;28;20236;-75
2021/05/06 02:04:13;;;;;;;6.77;2.90;;;;;4.50;100363.00;;;;10483009;28;20193;-75
2021/05/06 02:09:14;;;;;;;5.03;2.83;;;;;4.60;100355.00;;;;10481955;28;20263;-75
2021/05/06 02:14:15;;;;;;;3.00;2.33;;;;;4.70;100352.00;;;;10446483;28;20228;-75
2021/05/06 02:19:31;;;;;;;4.40;3.17;;;;;4.80;100345.00;;;;10467023;28;20292;-75
2021/05/06 02:24:33;;;;;;;4.40;2.87;;;;;4.80;100341.00;;;;10457394;28;20255;-75
2021/05/06 02:29:34;;;;;;;4.77;3.13;;;;;4.90;100339.00;;;;10448437;28;20723;-75
2021/05/06 02:34:35;;;;;;;5.73;3.17;;;;;4.90;100337.00;;;;10481801;28;20200;-75
2021/05/06 02:39:37;;;;;;;6.43;3.40;;;;;4.90;100333.00;;;;10464072;28;20209;-75
2021/05/06 02:44:40;;;;;;;10.97;3.23;;;;;5.00;100334.00;;;;10431453;28;20251;-75
2021/05/06 02:49:46;;;;;;;5.30;3.50;;;;;5.10;100313.00;;;;10459733;28;20201;-75
2021/05/06 02:54:55;;;;;;;6.83;3.50;;;;;5.10;100309.00;;;;10486801;28;20213;-75
2021/05/06 03:05:23;;;;;;;5.13;2.83;;;;;5.10;100305.00;;;;10497778;28;20619;-75
2021/05/06 03:10:35;;;;;;;3.10;2.80;;;;;5.10;100306.00;;;;10464222;28;20205;-75
2021/05/06 03:26:11;;;;;;;5.03;2.60;;;;;5.00;100292.00;;;;10497287;28;20220;-75
2021/05/06 03:41:52;;;;;;;4.97;3.00;;;;;4.60;100288.00;;;;10437732;28;20641;-74
2021/05/06 04:18:55;;;;;;;5.13;3.60;;;;;4.40;100260.00;;;;10478023;28;20206;-74
2021/05/06 04:55:30;;;;;;;9.93;5.70;;;;;5.00;100260.00;;;;10493205;28;20213;-74
2021/05/06 05:06:09;;;;;;;10.10;5.20;;;;;5.30;100266.00;;;;10426555;28;20263;-74
2021/05/06 05:11:36;;;;;;;9.23;5.27;;;;;5.50;100279.00;;;;10448526;28;20202;-74
2021/05/06 05:27:23;;;;;;;9.60;6.40;;;;;6.70;100255.00;;;;10467546;28;20193;-74
2021/05/06 05:32:26;;;;;;;9.80;5.87;;;;;7.00;100257.00;;;;10492727;28;20204;-74
2021/05/06 05:37:39;;;;;;;12.97;5.97;;;;;7.10;100260.00;;;;10466216;28;20248;-74
2021/05/06 05:43:09;;;;;;;8.03;5.33;;;;;7.30;100270.00;;;;10429711;28;20201;-74
2021/05/06 05:58:51;;;;;;;8.67;5.30;;;;;8.20;100276.00;;;;10490769;28;20213;-74
2021/05/06 06:03:52;;;;;;;7.20;4.03;;;;;8.70;100266.00;;;;10483274;28;20193;-74
2021/05/06 06:08:54;;;;;;;8.10;5.47;;;;;9.40;100263.00;;;;10482839;28;20209;-74
2021/05/06 06:13:55;;;;;;;7.03;4.23;;;;;9.80;100257.00;;;;10482091;28;20572;-74
2021/05/06 06:18:58;;;;;;;9.03;4.67;;;;;9.90;100265.00;;;;10495118;28;20267;-74
2021/05/06 06:24:01;;;;;;;8.13;4.57;;;;;10.20;100256.00;;;;10481470;28;20272;-74
2021/05/06 06:29:10;;;;;;;5.37;3.70;;;;;10.60;100256.00;;;;10481886;28;20186;-74
2021/05/06 06:34:12;;;;;;;9.83;4.93;;;;;10.90;100252.00;;;;10480498;28;20210;-74
2021/05/06 06:39:16;;;;;;;7.50;4.00;;;;;11.10;100250.00;;;;10463706;28;20672;-74
2021/05/06 06:44:22;;;;;;;6.43;3.70;;;;;11.20;100252.00;;;;10474036;28;20189;-74
2021/05/06 06:49:23;;;;;;;10.77;4.70;;;;;11.50;100261.00;;;;10480449;28;20200;-75
2021/05/06 06:54:26;;;;;;;7.07;4.37;;;;;12.00;100251.00;;;;10496869;28;20208;-75
2021/05/06 06:59:31;;;;;;;7.00;4.20;;;;;12.40;100236.00;;;;10477551;28;20206;-75
2021/05/06 07:04:32;;;;;;;12.33;3.97;;;;;12.60;100238.00;;;;10447112;28;20533;-75
2021/05/06 07:09:33;;;;;;;7.23;3.73;;;;;13.00;100245.00;;;;10476265;28;20244;-75
2021/05/06 07:14:37;;;;;;;4.97;3.00;;;;;13.20;100231.00;;;;10464540;28;20227;-75
2021/05/06 07:19:46;;;;;;;4.30;2.60;;;;;13.30;100230.00;;;;10473046;28;20228;-75
2021/05/06 07:24:47;;;;;;;6.33;3.10;;;;;13.50;100230.00;;;;10478299;28;20668;-75
2021/05/06 07:29:50;;;;;;;6.43;2.97;;;;;13.80;100218.00;;;;10478969;28;20283;-75
2021/05/06 07:34:56;;;;;;;5.83;3.17;;;;;14.10;100213.00;;;;10462024;28;20224;-74
2021/05/06 07:39:58;;;;;;;4.80;2.73;;;;;14.50;100206.00;;;;10460680;28;20209;-74
2021/05/06 07:45:04;;;;;;;6.40;2.47;;;;;14.90;100193.00;;;;10478575;28;20238;-73
2021/05/06 07:50:09;;;;;;;4.83;2.60;;;;;15.20;100180.00;;;;10483839;28;20243;-75
2021/05/06 07:55:16;;;;;;;4.30;2.67;;;;;15.60;100179.00;;;;10469214;28;20204;-75
2021/05/06 08:00:18;;;;;;;8.03;3.17;;;;;15.40;100188.00;;;;10475383;28;20181;-75
2021/05/06 08:05:20;;;;;;;6.57;3.07;;;;;15.20;100167.00;;;;10477094;28;20704;-74
2021/05/06 08:10:23;;;;;;;5.07;2.37;;;;;14.80;100175.00;;;;10496091;28;20571;-74
2021/05/06 08:15:25;;;;;;;5.47;2.20;;;;;15.40;100174.00;;;;10461520;28;20194;-74
2021/05/06 08:20:26;;;;;;;3.17;2.20;;;;;16.10;100172.00;;;;10470428;28;20189;-74
2021/05/06 08:25:28;;;;;;;3.77;2.40;;;;;16.50;100169.00;;;;10477850;28;20189;-74
2021/05/06 08:30:30;;;;;;;4.00;1.93;;;;;16.70;100159.00;;;;10510879;28;20289;-74
2021/05/06 08:35:32;;;;;;;5.30;2.20;;;;;16.60;100159.00;;;;10443618;28;20189;-74
2021/05/06 08:40:36;;;;;;;5.87;1.70;;;;;16.00;100158.00;;;;10460830;28;20197;-74
2021/05/06 08:45:46;;;;;;;3.33;1.97;;;;;16.50;100140.00;;;;10481241;28;20197;-74
2021/05/06 08:50:48;;;;;;;4.33;2.17;;;;;17.50;100138.00;;;;10485200;28;20252;-73
2021/05/06 08:55:53;;;;;;;3.70;1.85;;;;;17.90;100135.00;;;;10503048;28;20291;-73
2021/05/06 09:00:54;;;;;;;2.47;1.65;;;;;18.60;100128.00;;;;10500943;28;20198;-74
2021/05/06 09:06:14;;;;;;;3.95;1.52;;;;;19.50;100133.00;;;;10501694;28;20221;-74
2021/05/06 09:11:16;;;;;;;4.38;1.80;;;;;19.50;100132.00;;;;10468254;28;20255;-74
2021/05/06 09:16:17;;;;;;;4.88;2.03;;;;;19.30;100130.00;;;;10490878;28;20206;-74
2021/05/06 09:21:35;;;;;;;5.38;1.83;;;;;19.10;100120.00;;;;10508331;28;20280;-74
2021/05/06 09:26:39;;;;;;;4.78;1.90;;;;;19.80;100113.00;;;;10464102;28;20190;-73
2021/05/06 09:31:41;;;;;;;4.57;1.60;;;;;19.90;100106.00;;;;10455569;28;20236;-73
2021/05/06 09:36:44;;;;;;;3.97;1.65;;;;;18.80;100109.00;;;;10496083;28;20198;-74
2021/05/06 09:41:47;;;;;;;3.15;1.63;;;;;18.70;100116.00;;;;10480269;28;20221;-73
2021/05/06 09:46:58;;;;;;;2.25;1.83;;;;;18.50;100104.00;;;;10489763;28;20194;-74
2021/05/06 09:52:01;;;;;;;3.88;1.27;;;;;18.10;100095.00;;;;10481066;28;20209;-74
2021/05/06 09:57:04;;;;;;;1.58;1.38;;;;;18.20;100084.00;;;;10480980;28;20748;-74
2021/05/06 10:02:06;;;;;;;2.92;1.33;;;;;18.40;100081.00;;;;10500568;28;20276;-74
2021/05/06 10:07:16;;;;;;;1.67;1.30;;;;;18.60;100074.00;;;;10464993;28;20228;-74
2021/05/06 10:12:19;;;;;;;3.33;1.52;;;;;19.10;100065.00;;;;10448598;28;20200;-74
2021/05/06 10:17:22;;;;;;;3.97;1.50;;;;;18.90;100075.00;;;;10465382;28;20208;-74
2021/05/06 10:22:27;;;;;;;8.73;1.88;;;;;18.50;100065.00;;;;10456845;28;20296;-75
2021/05/06 10:27:31;;;;;;;5.28;1.67;;;;;18.70;100055.00;;;;10513972;28;20190;-74
2021/05/06 10:32:34;;;;;;;1.42;1.10;;;;;18.70;100055.00;;;;10464985;28;20756;-74
2021/05/06 10:37:43;;;;;;;4.07;1.70;;;;;18.60;100050.00;;;;10481030;28;20232;-74
2021/05/06 10:42:44;;;;;;;5.40;1.63;;;;;18.70;100043.00;;;;10497765;28;20190;-78
2021/05/06 10:47:46;;;;;;;1.70;1.17;;;;;18.70;100031.00;;;;10464438;28;21867;-78
2021/05/06 10:52:53;;;;;;;2.08;1.20;;;;;18.90;100028.00;;;;10470409;28;20283;-77
2021/05/06 10:57:55;;;;;;;3.80;1.92;;;;;18.90;100023.00;;;;10476127;28;20216;-77
2021/05/06 11:02:57;;;;;;;2.00;1.40;;;;;18.70;100020.00;;;;10499755;28;20243;-77
2021/05/06 11:08:04;;;;;;;3.85;1.42;;;;;18.60;100010.00;;;;10473866;28;20220;-77
2021/05/06 11:13:06;;;;;;;3.45;1.63;;;;;18.60;100004.00;;;;10478762;28;20220;-77
2021/05/06 11:18:09;;;;;;;5.75;1.60;;;;;19.20;99991.00;;;;10485826;28;20201;-77
2021/05/06 11:23:18;;;;;;;4.95;2.10;;;;;19.00;99989.00;;;;10503331;28;20197;-77
2021/05/06 11:28:19;;;;;;;5.17;2.20;;;;;19.00;99973.00;;;;10471504;28;20200;-78
2021/05/06 11:33:31;;;;;;;4.30;2.67;;;;;19.30;99972.00;;;;10470445;28;20688;-78
2021/05/06 11:43:48;;;;;;;4.78;3.20;;;;;17.90;99969.00;;;;10487995;28;20197;-78
2021/05/06 11:48:51;;;;;;;3.78;2.53;;;;;16.60;99975.00;;;;10504279;28;20204;-78
2021/05/06 11:54:06;;;;;;;4.90;2.53;;;;;15.60;99965.00;;;;10488929;28;20194;-78
2021/05/06 11:59:12;;;;;;;5.10;2.43;;;;;15.00;99953.00;;;;10502050;28;20224;-78
2021/05/06 12:04:22;;;;;;;4.20;2.53;;;;;14.70;99962.00;;;;10505098;28;20226;-77
2021/05/06 12:09:30;;;;;;;4.17;2.13;;;;;14.60;99952.00;;;;10445076;28;20198;-78
2021/05/06 12:14:37;;;;;;;1.70;1.60;;;;;14.30;99948.00;;;;10484078;28;20193;-78
2021/05/06 12:19:43;;;;;;;3.57;2.17;;;;;14.20;99957.00;;;;10484837;28;20217;-78
2021/05/06 12:24:49;;;;;;;5.73;2.20;;;;;13.90;99956.00;;;;10485624;28;20251;-77
2021/05/06 12:30:10;;;;;;;4.27;2.30;;;;;14.10;99938.00;;;;10488032;28;20247;-78
2021/05/06 12:35:12;;;;;;;6.27;2.40;;;;;13.60;99934.00;;;;10477685;28;20656;-79
2021/05/06 12:40:14;;;;;;;3.83;1.93;;;;;13.50;99927.00;;;;10467999;28;20197;-78
2021/05/06 12:45:16;;;;;;;5.13;2.57;;;;;13.90;99920.00;;;;10517978;28;20752;-78
2021/05/06 12:50:28;;;;;;;3.47;2.20;;;;;14.70;99901.00;;;;10502565;28;20189;-78
2021/05/06 12:55:38;;;;;;;3.77;2.50;;;;;15.80;99897.00;;;;10506692;28;20608;-77
2021/05/06 13:01:02;;;;;;;4.63;2.40;;;;;16.40;99895.00;;;;10479474;28;20281;-78
2021/05/06 13:06:11;;;;;;;3.93;2.20;;;;;16.40;99900.00;;;;10451163;28;20567;-77
2021/05/06 13:11:19;;;;;;;3.30;2.40;;;;;16.30;99897.00;;;;10501181;28;20200;-78
2021/05/06 13:16:48;;;;;;;2.87;2.10;;;;;16.70;99894.00;;;;10463631;28;20213;-78
2021/05/06 13:21:52;;;;;;;4.37;2.17;;;;;16.70;99887.00;;;;10443371;28;20187;-78
2021/05/06 13:26:55;;;;;;;3.30;2.10;;;;;17.00;99881.00;;;;10443427;28;20642;-78
2021/05/06 13:32:03;;;;;;;4.17;2.30;;;;;17.50;99876.00;;;;10464572;28;20198;-78
2021/05/06 13:37:05;;;;;;;2.20;1.93;;;;;17.80;99880.00;;;;10451996;28;20210;-78
2021/05/06 13:42:06;;;;;;;2.97;2.03;;;;;17.90;99871.00;;;;10460030;28;20999;-79
2021/05/06 13:47:09;;;;;;;3.40;2.07;;;;;17.70;99868.00;;;;10509904;28;20197;-78
2021/05/06 13:52:11;;;;;;;3.60;2.10;;;;;17.10;99860.00;;;;10477258;28;20222;-78
2021/05/06 13:57:13;;;;;;;4.93;2.50;;;;;16.70;99865.00;;;;10502272;28;20206;-78
2021/05/06 14:02:17;;;;;;;4.80;2.60;;;;;16.00;99866.00;;;;10505412;28;20201;-78
2021/05/06 14:07:19;;;;;;;6.50;2.30;;;;;15.50;99864.00;;;;10490403;28;20277;-78
2021/05/06 14:12:20;;;;;;;6.10;2.27;;;;;15.40;99852.00;;;;10491660;28;20196;-78
2021/05/06 14:17:23;;;;;;;4.73;1.97;;;;;16.50;99861.00;;;;10509066;28;20209;-78
2021/05/06 14:22:27;;;;;;;4.97;2.53;;;;;16.40;99859.00;;;;10511643;28;20246;-78
2021/05/06 14:27:28;;;;;;;4.00;2.27;;;;;15.70;99856.00;;;;10500129;28;20235;-77
2021/05/06 14:32:29;;;;;;;4.23;2.47;;;;;15.40;99845.00;;;;10467541;28;20213;-79
2021/05/06 14:37:31;;;;;;;4.97;2.60;;;;;14.90;99854.00;;;;10453251;28;20759;-78
2021/05/06 14:42:33;;;;;;;5.93;2.50;;;;;14.10;99852.00;;;;10474027;28;20216;-78
2021/05/06 14:47:36;;;;;;;4.63;2.33;;;;;13.90;99856.00;;;;10457472;28;20208;-78
2021/05/06 14:52:39;;;;;;;3.13;2.23;;;;;13.70;99849.00;;;;10474239;28;20200;-78
2021/05/06 14:57:40;;;;;;;7.83;2.37;;;;;13.50;99851.00;;;;10507598;28;20573;-78
2021/05/06 15:02:42;;;;;;;5.40;2.20;;;;;13.30;99851.00;;;;10523899;28;20220;-78
2021/05/06 15:07:44;;;;;;;4.07;2.60;;;;;13.20;99857.00;;;;10497077;28;20759;-77
2021/05/06 15:12:48;;;;;;;4.00;2.50;;;;;13.10;99855.00;;;;10489116;28;20197;-78
2021/05/06 15:17:55;;;;;;;4.27;2.70;;;;;13.10;99848.00;;;;10502349;28;20215;-78
2021/05/06 15:22:56;;;;;;;4.10;2.53;;;;;12.80;99843.00;;;;10530038;28;20197;-78
2021/05/06 15:27:57;;;;;;;3.47;2.30;;;;;12.80;99846.00;;;;10467545;28;20190;-77
2021/05/06 15:33:01;;;;;;;5.10;2.40;;;;;12.70;99846.00;;;;10505425;28;20205;-78
2021/05/06 15:38:08;;;;;;;6.33;2.50;;;;;12.50;99851.00;;;;10488483;28;20570;-77
2021/05/06 15:43:11;;;;;;;5.87;2.37;;;;;12.20;99849.00;;;;10470686;28;20272;-78
2021/05/06 15:48:13;;;;;;;3.83;2.60;;;;;12.00;99853.00;;;;10487619;28;20676;-78
2021/05/06 15:53:15;;;;;;;4.37;3.00;;;;;11.70;99857.00;;;;10453283;28;20641;-78
2021/05/06 15:58:16;;;;;;;3.83;2.80;;;;;11.40;99854.00;;;;10490634;28;20212;-78
2021/05/06 16:03:18;;;;;;;6.97;3.17;;;;;11.10;99852.00;;;;10525950;28;20243;-78
2021/05/06 16:08:21;;;;;;;6.13;3.27;;;;;10.80;99860.00;;;;10411383;28;20217;-78
2021/05/06 16:13:24;;;;;;;5.13;3.80;;;;;10.60;99861.00;;;;10466746;28;20193;-76
2021/05/06 16:18:25;;;;;;;6.30;3.63;;;;;10.40;99887.00;;;;10490214;28;20197;-77
2021/05/06 16:23:26;;;;;;;7.20;4.50;;;;;10.00;99897.00;;;;10510199;28;20220;-78
2021/05/06 16:28:28;;;;;;;9.73;6.37;;;;;9.00;99919.00;;;;10504364;28;20248;-78
2021/05/06 16:33:33;;;;;;;8.37;7.37;;;;;8.40;99916.00;;;;10506210;28;20203;-77
2021/05/06 16:38:46;;;;;;;10.20;8.67;;;;;8.20;99937.00;;;;10489026;28;20263;-77
2021/05/06 16:43:59;;;;;;;10.47;8.50;;;;;8.20;99938.00;;;;10472056;28;20197;-77
2021/05/06 16:49:01;;;;;;;12.63;8.73;;;;;8.20;99953.00;;;;10474488;28;20244;-77
2021/05/06 16:54:03;;;;;;;9.87;7.23;;;;;8.20;99954.00;;;;10482591;28;20197;-77
2021/05/06 16:59:04;;;;;;;9.50;7.90;;;;;8.00;99969.00;;;;10454388;28;20216;-77
2021/05/06 17:04:07;;;;;;;15.07;8.37;;;;;8.00;99976.00;;;;10495271;28;20193;-77
2021/05/06 17:09:10;;;;;;;11.00;8.77;;;;;8.00;99988.00;;;;10483271;28;20334;-77
2021/05/06 17:14:12;;;;;;;9.70;7.67;;;;;7.90;100014.00;;;;10508939;28;20208;-77
2021/05/06 17:19:13;;;;;;;11.03;9.57;;;;;7.80;100018.00;;;;10494330;28;20198;-78
2021/05/06 17:24:16;;;;;;;10.20;9.20;;;;;7.60;100006.00;;;;10495327;28;20190;-78
2021/05/06 17:29:20;;;;;;;9.60;8.10;;;;;7.40;100014.00;;;;10532094;28;20240;-77
2021/05/06 17:34:21;;;;;;;12.57;10.33;;;;;7.20;100029.00;;;;10496087;28;20220;-78
2021/05/06 17:39:23;;;;;;;10.87;9.37;;;;;7.10;100037.00;;;;10510739;28;20232;-78
2021/05/06 17:44:25;;;;;;;14.23;9.40;;;;;7.10;100052.00;;;;10478481;28;20202;-78
2021/05/06 17:49:26;;;;;;;13.87;10.50;;;;;7.00;100060.00;;;;10498865;28;20182;-78
2021/05/06 17:54:30;;;;;;;14.20;9.90;;;;;6.90;100066.00;;;;10449753;28;20607;-78
2021/05/06 17:59:32;;;;;;;13.87;10.83;;;;;6.90;100080.00;;;;10487992;28;20221;-78
2021/05/06 18:04:34;;;;;;;13.03;11.43;;;;;7.10;100078.00;;;;10473844;28;20216;-78
2021/05/06 18:09:37;;;;;;;16.53;12.53;;;;;7.20;100084.00;;;;10489233;28;20189;-78
2021/05/06 18:14:40;;;;;;;13.03;11.63;;;;;7.10;100091.00;;;;10495595;28;20236;-78
2021/05/06 18:19:41;;;;;;;12.27;11.07;;;;;7.10;100102.00;;;;10501586;28;20270;-78
2021/05/06 18:24:43;;;;;;;14.37;12.13;;;;;7.10;100105.00;;;;10472599;28;20260;-78
2021/05/06 18:29:45;;;;;;;15.57;12.27;;;;;7.10;100113.00;;;;10488970;28;20243;-78
2021/05/06 18:34:48;;;;;;;15.23;12.67;;;;;7.10;100117.00;;;;10471925;28;20636;-78
2021/05/06 18:39:49;;;;;;;14.43;12.20;;;;;7.20;100123.00;;;;10490708;28;20222;-78
2021/05/06 18:44:50;;;;;;;15.50;12.83;;;;;7.20;100125.00;;;;10470790;28;20196;-78
2021/05/06 18:49:53;;;;;;;15.43;13.43;;;;;7.20;100134.00;;;;10476325;28;20202;-78
2021/05/06 18:54:54;;;;;;;17.47;13.97;;;;;7.20;100150.00;;;;10482416;28;20194;-78
2021/05/06 18:59:56;;;;;;;15.00;12.90;;;;;7.20;100156.00;;;;10456166;28;20206;-78
2021/05/06 19:04:57;;;;;;;15.67;14.07;;;;;7.10;100161.00;;;;10492090;28;20267;-78
2021/05/06 19:10:01;;;;;;;17.17;14.43;;;;;7.10;100165.00;;;;10451168;28;20190;-78
2021/05/06 19:15:04;;;;;;;16.67;14.20;;;;;7.00;100176.00;;;;10455849;28;20201;-78
2021/05/06 19:20:06;;;;;;;18.20;14.97;;;;;6.90;100183.00;;;;10478222;28;20207;-78
2021/05/06 19:25:08;;;;;;;17.73;14.53;;;;;6.80;100187.00;;;;10522046;28;20212;-78
2021/05/06 19:30:10;;;;;;;18.40;15.80;;;;;6.80;100187.00;;;;10474055;28;20201;-78
2021/05/06 19:35:13;;;;;;;19.27;16.70;;;;;6.80;100199.00;;;;10449591;28;20202;-77
2021/05/06 19:40:14;;;;;;;17.97;16.07;;;;;6.80;100210.00;;;;10476065;28;20198;-78
2021/05/06 19:45:25;;;;;;;23.10;17.63;;;;;6.70;100209.00;;;;10460548;28;21494;-78
2021/05/06 19:50:26;;;;;;;20.53;16.77;;;;;6.60;100222.00;;;;10488399;28;20189;-78
2021/05/06 19:55:31;;;;;;;23.03;17.23;;;;;6.60;100223.00;;;;10481972;28;20177;-78
2021/05/06 20:00:33;;;;;;;19.90;16.23;;;;;6.60;100225.00;;;;10460950;28;20285;-78
2021/05/06 20:05:34;;;;;;;20.90;17.13;;;;;6.50;100226.00;;;;10489058;28;20216;-78
2021/05/06 20:10:39;;;;;;;20.23;16.77;;;;;6.40;100237.00;;;;10490921;28;20193;-78
2021/05/06 20:15:41;;;;;;;20.33;17.03;;;;;6.30;100241.00;;;;10470018;28;20289;-78
2021/05/06 20:21:02;;;;;;;19.87;16.30;;;;;6.30;100248.00;;;;10454642;28;20260;-78
2021/05/06 20:26:12;;;;;;;22.73;16.40;;;;;6.30;100250.00;;;;10504763;28;20687;-78
2021/05/06 20:31:13;;;;;;;19.67;15.83;;;;;6.40;100249.00;;;;10441883;28;20516;-79
2021/05/06 20:36:15;;;;;;;22.50;16.87;;;;;6.40;100264.00;;;;10467648;28;20220;-78
2021/05/06 20:41:16;;;;;;;17.13;14.77;;;;;6.40;100267.00;;;;10503564;28;20220;-76
2021/05/06 20:46:17;;;;;;;21.07;17.77;;;;;6.40;100265.00;;;;10518969;28;20205;-78
2021/05/06 20:51:20;;;;;;;21.90;16.80;;;;;6.50;100268.00;;;;10486165;28;20225;-80
2021/05/06 20:56:21;;;;;;;20.60;17.23;;;;;6.50;100273.00;;;;10500008;28;20193;-77
2021/05/06 21:01:22;;;;;;;23.87;16.07;;;;;6.50;100278.00;;;;10488996;28;20260;-79
2021/05/06 21:06:24;;;;;;;18.83;15.83;;;;;6.40;100280.00;;;;10492627;28;20299;-78
2021/05/06 21:11:25;;;;;;;19.80;15.63;;;;;6.40;100276.00;;;;10470645;28;20189;-78
2021/05/06 21:16:26;;;;;;;23.13;14.53;;;;;6.30;100282.00;;;;10463580;28;20213;-79
2021/05/06 21:21:28;;;;;;;18.83;15.67;;;;;6.20;100284.00;;;;10473938;28;20193;-79
2021/05/06 21:26:29;;;;;;;22.63;15.00;;;;;6.10;100282.00;;;;10453446;28;20186;-78
2021/05/06 21:31:30;;;;;;;15.00;13.17;;;;;5.90;100287.00;;;;10490031;28;20200;-79
2021/05/06 21:36:32;;;;;;;20.70;14.33;;;;;5.80;100281.00;;;;10456943;28;20260;-78
2021/05/06 21:41:34;;;;;;;18.23;14.30;;;;;5.60;100294.00;;;;10508339;28;20255;-78
2021/05/06 21:46:36;;;;;;;19.73;14.47;;;;;5.50;100292.00;;;;10474435;28;20814;-79
2021/05/06 21:51:39;;;;;;;18.43;13.80;;;;;5.50;100302.00;;;;10474722;28;20193;-79
2021/05/06 21:56:40;;;;;;;18.70;14.53;;;;;5.30;100298.00;;;;10478099;28;20550;-79
2021/05/06 22:01:41;;;;;;;18.57;14.63;;;;;5.20;100293.00;;;;10492019;28;20205;-79
2021/05/06 22:06:44;;;;;;;22.00;15.37;;;;;5.20;100309.00;;;;10468792;28;20245;-78
2021/05/06 22:11:46;;;;;;;22.63;15.93;;;;;5.10;100315.00;;;;10456832;28;20663;-79
2021/05/06 22:16:47;;;;;;;18.93;15.87;;;;;5.10;100316.00;;;;10473453;28;20205;-79
2021/05/06 22:21:49;;;;;;;19.03;15.60;;;;;5.00;100319.00;;;;10490166;28;20255;-79
2021/05/06 22:26:51;;;;;;;17.70;15.07;;;;;5.00;100326.00;;;;10507068;28;20668;-79
2021/05/06 22:31:52;;;;;;;23.70;18.17;;;;;5.00;100332.00;;;;10490158;28;20247;-78
2021/05/06 22:36:54;;;;;;;24.30;17.30;;;;;5.00;100345.00;;;;10439990;28;20636;-80
2021/05/06 22:41:56;;;;;;;24.80;17.27;;;;;5.00;100354.00;;;;10490187;28;20204;-79
2021/05/06 22:46:57;;;;;;;23.80;17.97;;;;;4.90;100363.00;;;;10472076;28;20255;-78
2021/05/06 22:51:58;;;;;;;25.93;18.23;;;;;4.90;100361.00;;;;10488442;28;20201;-79
2021/05/06 22:57:01;;;;;;;24.67;18.90;;;;;4.90;100360.00;;;;10456398;28;20221;-79
2021/05/06 23:02:09;;;;;;;22.50;18.13;;;;;4.80;100367.00;;;;10438179;28;20201;-79
2021/05/06 23:07:11;;;;;;;25.63;18.37;;;;;4.60;100367.00;;;;10446685;28;20711;-79
2021/05/06 23:12:12;;;;;;;24.10;18.10;;;;;4.60;100379.00;;;;10438211;28;20193;-79
2021/05/06 23:17:14;;;;;;;24.50;17.40;;;;;4.40;100373.00;;;;10487578;28;20211;-79
2021/05/06 23:22:15;;;;;;;25.57;18.03;;;;;4.40;100369.00;;;;10471625;28;20190;-78
2021/05/06 23:27:17;;;;;;;28.67;17.83;;;;;4.30;100376.00;;;;10454615;28;20193;-78
2021/05/06 23:32:19;;;;;;;22.53;18.10;;;;;4.20;100377.00;;;;10428923;28;20200;-78
2021/05/06 23:37:21;;;;;;;22.33;17.33;;;;;4.20;100381.00;;;;10412326;28;20260;-78
2021/05/06 23:42:22;;;;;;;25.30;18.60;;;;;4.20;100380.00;;;;10460978;28;20190;-78
2021/05/06 23:47:24;;;;;;;22.83;17.67;;;;;4.00;100374.00;;;;10452581;28;20197;-79
2021/05/06 23:52:26;;;;;;;23.60;18.37;;;;;3.90;100379.00;;;;10485880;28;20221;-79
2021/05/06 23:57:47;;;;;;;22.53;17.10;;;;;3.80;100364.00;;;;10470784;28;20755;-78
